Time;durP1;ratioP1;P1;durP2;ratioP2;P2;SDS_P1;SDS_P2;PMS_P1;PMS_P2;Temp;Humidity;BMP_temperature;BMP_pressure;BME280_temperature;BME280_humidity;BME280_pressure;Samples;Min_cycle;Max_cycle;Signal;HPM_P1;HPM_P2
2022/12/01 00:00:41;;;;;;;83.22;35.40;;;;;;;;;;6251849;22;20022;-93
2022/12/01 00:03:08;;;;;;;86.03;33.97;;;;;;;;;;6251722;22;20061;-94
2022/12/01 00:05:34;;;;;;;74.25;35.00;;;;;;;;;;6252269;22;20094;-93
2022/12/01 00:08:02;;;;;;;73.32;32.65;;;;;;;;;;6251496;22;20023;-93
2022/12/01 00:10:28;;;;;;;77.32;34.35;;;;;;;;;;6251473;22;20057;-94
2022/12/01 00:12:56;;;;;;;82.53;36.78;;;;;;;;;;6251695;22;20012;-94
2022/12/01 00:15:23;;;;;;;70.05;33.88;;;;;;;;;;6255764;22;20061;-94
2022/12/01 00:17:49;;;;;;;81.95;34.65;;;;;;;;;;6261207;22;20356;-92
2022/12/01 00:20:15;;;;;;;67.72;33.30;;;;;;;;;;6263092;22;20019;-94
2022/12/01 00:22:43;;;;;;;77.75;34.78;;;;;;;;;;6260692;22;20452;-94
2022/12/01 00:25:09;;;;;;;74.07;31.85;;;;;;;;;;6259345;22;20020;-93
2022/12/01 00:27:35;;;;;;;82.45;36.40;;;;;;;;;;6254198;22;20046;-94
2022/12/01 00:30:01;;;;;;;77.55;34.22;;;;;;;;;;6252210;22;20031;-95
2022/12/01 00:32:29;;;;;;;70.40;35.05;;;;;;;;;;6251918;22;20015;-94
2022/12/01 00:34:55;;;;;;;81.43;36.63;;;;;;;;;;6251423;22;20015;-94
2022/12/01 00:37:21;;;;;;;80.63;34.70;;;;;;;;;;6252922;22;20012;-94
2022/12/01 00:39:47;;;;;;;82.25;35.25;;;;;;;;;;6253068;22;20012;-93
2022/12/01 00:42:13;;;;;;;79.53;36.30;;;;;;;;;;6251419;22;20098;-93
2022/12/01 00:44:39;;;;;;;85.90;37.35;;;;;;;;;;6252503;22;20015;-93
2022/12/01 00:47:06;;;;;;;85.35;34.95;;;;;;;;;;6252634;22;20027;-94
2022/12/01 00:49:32;;;;;;;78.82;36.55;;;;;;;;;;6252420;22;20016;-93
2022/12/01 00:51:58;;;;;;;79.25;37.25;;;;;;;;;;6251756;22;20306;-94
2022/12/01 00:54:24;;;;;;;78.45;35.53;;;;;;;;;;6251249;22;20062;-93
2022/12/01 00:56:50;;;;;;;77.82;36.33;;;;;;;;;;6251288;22;20012;-94
2022/12/01 00:59:16;;;;;;;73.00;34.50;;;;;;;;;;6251107;22;20016;-93
2022/12/01 01:01:42;;;;;;;80.85;35.08;;;;;;;;;;6251186;22;20015;-93
2022/12/01 01:04:08;;;;;;;82.57;37.53;;;;;;;;;;6251434;22;20349;-94
2022/12/01 01:06:34;;;;;;;83.95;35.67;;;;;;;;;;6251830;22;20015;-94
2022/12/01 01:09:00;;;;;;;82.38;37.22;;;;;;;;;;6251110;22;20023;-94
2022/12/01 01:11:26;;;;;;;85.10;35.83;;;;;;;;;;6250888;22;20322;-93
2022/12/01 01:13:55;;;;;;;79.85;35.88;;;;;;;;;;6252409;22;20018;-94
2022/12/01 01:16:22;;;;;;;83.50;35.70;;;;;;;;;;6251548;22;20401;-94
2022/12/01 01:18:48;;;;;;;74.53;37.17;;;;;;;;;;6252390;22;20054;-94
2022/12/01 01:21:15;;;;;;;73.75;35.20;;;;;;;;;;6251471;22;20025;-94
2022/12/01 01:23:42;;;;;;;75.32;35.17;;;;;;;;;;6250997;22;20157;-93
2022/12/01 01:26:13;;;;;;;86.35;36.00;;;;;;;;;;6251208;22;20099;-94
2022/12/01 01:28:42;;;;;;;78.03;37.38;;;;;;;;;;6251261;22;20062;-93
2022/12/01 01:31:09;;;;;;;71.75;33.88;;;;;;;;;;6250675;22;20526;-93
2022/12/01 01:33:38;;;;;;;81.60;34.20;;;;;;;;;;6250952;22;20094;-94
2022/12/01 01:36:04;;;;;;;84.82;35.35;;;;;;;;;;6251646;22;20019;-93
2022/12/01 01:38:31;;;;;;;73.85;34.53;;;;;;;;;;6250880;22;20443;-93
2022/12/01 01:40:57;;;;;;;74.57;32.78;;;;;;;;;;6250734;22;20011;-93
2022/12/01 01:43:43;;;;;;;80.57;33.25;;;5.90;99.90;;;;;;6252178;22;20016;-93
2022/12/01 01:46:14;;;;;;;84.07;35.20;;;;;;;;;;6250284;22;20050;-93
2022/12/01 01:48:44;;;;;;;69.15;32.65;;;;;;;;;;6250712;22;20027;-94
2022/12/01 01:51:11;;;;;;;89.05;37.28;;;;;;;;;;6250568;22;20015;-93
2022/12/01 01:53:37;;;;;;;74.13;33.90;;;;;;;;;;6250845;22;20034;-94
2022/12/01 01:56:04;;;;;;;78.03;35.40;;;;;;;;;;6251525;22;20015;-93
2022/12/01 01:58:31;;;;;;;80.90;32.67;;;;;;;;;;6252106;22;20012;-94
2022/12/01 02:00:57;;;;;;;81.32;35.22;;;;;;;;;;6251521;22;20019;-94
2022/12/01 02:03:24;;;;;;;65.32;32.25;;;;;;;;;;6250675;22;20318;-94
2022/12/01 02:05:50;;;;;;;75.93;34.03;;;;;;;;;;6252198;22;20020;-94
2022/12/01 02:08:16;;;;;;;83.60;33.90;;;;;;;;;;6252247;22;20008;-93
2022/12/01 02:10:45;;;;;;;71.35;34.28;;;;;;;;;;6251896;22;20023;-93
2022/12/01 02:13:21;;;;;;;67.97;33.25;;;;;;;;;;6252051;22;20011;-93
2022/12/01 02:15:57;;;;;;;74.70;33.95;;;;;;;;;;6250864;22;20372;-94
2022/12/01 02:18:31;;;;;;;76.28;35.00;;;;;;;;;;6250889;22;20074;-94
2022/12/01 02:21:14;;;;;;;77.60;35.00;;;;;;;;;;6251240;22;20054;-93
2022/12/01 02:23:40;;;;;;;84.38;35.45;;;;;;;;;;6252010;22;20387;-94
2022/12/01 02:26:09;;;;;;;72.03;34.55;;;;;;;;;;6251338;22;20054;-93
2022/12/01 02:29:03;;;;;;;76.63;34.60;;;;;;;;;;6277547;22;20019;-94
2022/12/01 02:31:48;;;;;;;75.70;34.35;;;;;;;;;;6250669;22;20030;-93
2022/12/01 02:34:22;;;;;;;82.35;35.00;;;;;;;;;;6250766;22;20012;-93
2022/12/01 02:36:50;;;;;;;77.95;33.30;;;;;;;;;;6250671;22;20039;-94
2022/12/01 02:39:22;;;;;;;76.82;32.80;;;;;;;;;;6251866;22;20351;-93
2022/12/01 02:41:50;;;;;;;68.25;31.17;;;;;;;;;;6251150;22;20016;-93
2022/12/01 02:44:19;;;;;;;68.85;32.50;;;;;;;;;;6251964;22;20016;-93
2022/12/01 02:46:50;;;;;;;79.93;35.13;;;;;;;;;;6250699;22;20046;-94
2022/12/01 02:49:22;;;;;;;80.85;34.72;;;;;;;;;;6251724;22;20015;-93
2022/12/01 02:51:49;;;;;;;82.97;36.22;;;;;;;;;;6253152;22;20360;-93
2022/12/01 02:54:15;;;;;;;71.95;33.40;;;;;;;;;;6277922;22;20030;-95
2022/12/01 02:56:46;;;;;;;76.30;35.05;;;;;;;;;;6252904;22;20039;-94
2022/12/01 02:59:13;;;;;;;83.57;34.97;;;;;;;;;;6252458;22;20055;-94
2022/12/01 03:01:53;;;;;;;82.68;38.03;;;;;;;;;;6252704;22;20051;-94
2022/12/01 03:04:19;;;;;;;78.75;35.30;;;;;;;;;;6253484;22;20020;-94
2022/12/01 03:06:48;;;;;;;82.45;34.15;;;;;;;;;;6252177;22;20445;-94
2022/12/01 03:09:29;;;;;;;72.07;33.72;;;;;;;;;;6251909;22;20388;-94
2022/12/01 03:12:14;;;;;;;85.53;37.35;;;;;;;;;;6252285;22;20054;-93
2022/12/01 03:15:19;;;;;;;81.15;36.58;;;;;;;;;;6256588;22;20022;-94
2022/12/01 03:17:56;;;;;;;74.88;34.35;;;;;;;;;;6155997;23;20045;-94
2022/12/01 03:20:31;;;;;;;80.25;36.40;;;;;;;;;;6107286;23;20021;-94
2022/12/01 03:23:08;;;;;;;70.20;33.83;;;;;;;;;;6107299;23;20100;-94
2022/12/01 03:25:39;;;;;;;85.47;36.55;;;;;;;;;;6131288;23;20056;-94
2022/12/01 03:28:08;;;;;;;73.85;35.08;;;;;;;;;;6107025;23;20018;-94
2022/12/01 03:30:37;;;;;;;77.45;34.05;;;;;;;;;;6131494;23;20501;-94
2022/12/01 03:33:08;;;;;;;84.85;36.63;;;;;;;;;;6107403;23;20045;-94
2022/12/01 03:35:46;;;;;;;80.50;35.22;;;;;;;;;;6122029;23;20017;-93
2022/12/01 03:38:18;;;;;;;79.88;35.65;;;;;;;;;;6119389;23;20494;-95
2022/12/01 03:40:46;;;;;;;70.65;32.47;;;;;;;;;;6116210;23;20026;-95
2022/12/01 03:43:15;;;;;;;70.90;34.85;;;;;;;;;;6112284;23;20336;-95
2022/12/01 03:45:53;;;;;;;71.32;34.95;;;;;;;;;;6108242;23;20021;-93
2022/12/01 03:48:20;;;;;;;68.65;33.00;;;;;;;;;;6174205;22;20015;-94
2022/12/01 03:51:00;;;;;;;72.82;36.13;;;;;;;;;;6257129;22;20022;-93
2022/12/01 03:53:32;;;;;;;81.28;34.05;;;;;;;;;;6256931;22;20104;-94
2022/12/01 03:56:12;;;;;;;69.95;33.03;;;;;;;;;;6262478;22;20062;-93
2022/12/01 03:58:41;;;;;;;80.65;33.53;;;;;;;;;;6264967;22;20023;-93
2022/12/01 04:01:07;;;;;;;80.95;33.72;;;;;;;;;;6236435;22;20464;-94
2022/12/01 04:03:34;;;;;;;80.95;35.08;;;;;;;;;;6257155;22;20098;-94
2022/12/01 04:06:00;;;;;;;73.00;35.15;;;;;;;;;;6255606;22;20046;-94
2022/12/01 04:08:29;;;;;;;71.88;33.17;;;;;;;;;;6260120;22;20015;-94
2022/12/01 04:10:56;;;;;;;69.35;31.10;;;;;;;;;;6260398;22;20073;-94
2022/12/01 04:13:24;;;;;;;72.97;32.70;;;;;;;;;;6254804;22;20037;-94
2022/12/01 04:15:51;;;;;;;70.65;34.95;;;;;;;;;;6263443;22;20039;-93
2022/12/01 04:18:21;;;;;;;76.90;35.05;;;;;;;;;;6265502;22;20022;-96
2022/12/01 04:20:48;;;;;;;76.57;34.92;;;;;;;;;;6259406;22;20098;-95
2022/12/01 04:23:58;;;;;;;74.35;34.83;;;;;;;;;;6266092;22;20020;-92
2022/12/01 04:26:04;;;;;;;78.25;35.00;;;;;;;;;;6292074;22;20074;-94
2022/12/01 04:28:30;;;;;;;84.15;34.50;;;;;;;;;;6261984;22;20023;-94
2022/12/01 04:30:56;;;;;;;77.72;35.20;;;;;;;;;;6261650;22;20015;-95
2022/12/01 04:33:22;;;;;;;75.78;34.05;;;;;;;;;;6257927;22;20019;-96
2022/12/01 04:35:59;;;;;;;83.75;36.55;;;;;;;;;;6259450;22;20019;-93
2022/12/01 04:38:25;;;;;;;75.38;36.78;;;;;;;;;;6263567;22;20015;-93
2022/12/01 04:40:51;;;;;;;77.47;33.80;;;;;;;;;;6261564;22;20025;-94
2022/12/01 04:43:17;;;;;;;72.70;34.95;;;;;;;;;;6257807;22;20097;-93
2022/12/01 04:45:43;;;;;;;78.70;33.88;;;;;;;;;;6256642;22;20062;-96
2022/12/01 04:48:09;;;;;;;75.70;34.17;;;;;;;;;;6256462;22;20012;-95
2022/12/01 04:50:35;;;;;;;67.00;30.58;;;;;;;;;;6257457;22;20016;-95
2022/12/01 04:53:02;;;;;;;62.78;30.52;;;;;;;;;;6256900;22;20457;-94
2022/12/01 04:55:28;;;;;;;63.60;30.02;;;;;;;;;;6257589;22;20019;-95
2022/12/01 04:57:54;;;;;;;71.20;32.90;;;;;;;;;;6257356;22;20020;-93
2022/12/01 05:00:20;;;;;;;85.85;33.17;;;;;;;;;;6257733;22;20059;-93
2022/12/01 05:02:46;;;;;;;71.15;33.97;;;;;;;;;;6257537;22;20016;-94
2022/12/01 05:05:13;;;;;;;70.65;33.33;;;;;;;;;;6287972;22;20069;-92
2022/12/01 05:07:39;;;;;;;63.33;32.75;;;;;;;;;;6289513;22;20098;-92
2022/12/01 05:10:17;;;;;;;72.35;33.78;;;;;;;;;;6288112;22;20328;-94
2022/12/01 05:12:47;;;;;;;75.22;32.85;;;;;;;;;;6288082;22;20058;-93
2022/12/01 05:15:13;;;;;;;65.55;30.23;;;;;;;;;;6235863;22;20013;-92
2022/12/01 05:17:40;;;;;;;71.60;31.52;;;;;;;;;;6262975;22;20020;-92
2022/12/01 05:22:57;;;;;;;64.45;29.98;;;;;;;;;;6289311;22;20050;-93
2022/12/01 05:25:25;;;;;;;66.95;32.45;;;;;;;;;;6264384;22;20027;-92
2022/12/01 05:28:10;;;;;;;70.20;31.10;;;;;;;;;;6267102;22;20368;-92
2022/12/01 05:30:36;;;;;;;71.75;32.00;;;;;;;;;;6256319;22;20103;-93
2022/12/01 05:33:02;;;;;;;64.43;30.13;;;;;;;;;;6252028;22;20303;-95
2022/12/01 05:35:28;;;;;;;63.22;29.10;;;;;;;;;;6253479;22;20022;-95
2022/12/01 05:37:54;;;;;;;71.57;30.80;;;;;;;;;;6283278;22;20055;-95
2022/12/01 07:09:00;;;;;;;23.63;11.20;;;;;;;;;;6268525;22;20047;-96
2022/12/01 07:11:26;;;;;;;93.65;13.60;;;;;;;;;;6253331;22;20019;-95
2022/12/01 07:13:55;;;;;;;42.63;10.55;;;;;;;;;;6254249;22;20016;-94
2022/12/01 07:16:22;;;;;;;21.00;8.98;;;;;;;;;;6253081;22;20047;-94
2022/12/01 07:18:48;;;;;;;20.55;11.00;;;;;;;;;;6252966;22;20023;-94
2022/12/01 07:21:14;;;;;;;18.70;11.60;;;;;;;;;;6254177;22;20428;-94
2022/12/01 07:23:41;;;;;;;21.52;11.93;;;;;;;;;;6252762;22;20372;-94
2022/12/01 07:26:11;;;;;;;18.40;10.35;;;;;;;;;;6254045;22;20015;-94
2022/12/01 07:28:37;;;;;;;25.45;12.65;;;;;;;;;;6253340;22;20283;-94
2022/12/01 07:31:05;;;;;;;22.83;12.02;;;;;;;;;;6253874;22;20098;-96
2022/12/01 07:33:31;;;;;;;22.63;13.23;;;;;;;;;;6253165;22;20011;-94
2022/12/01 07:35:57;;;;;;;24.42;13.50;;;;;;;;;;6252774;22;20067;-93
2022/12/01 07:38:23;;;;;;;26.85;14.75;;;;;;;;;;6252700;22;20380;-93
2022/12/01 07:40:49;;;;;;;22.13;12.25;;;;;;;;;;6252239;22;20051;-94
2022/12/01 07:43:15;;;;;;;18.63;10.30;;;;;;;;;;6253209;22;20074;-95
2022/12/01 07:45:41;;;;;;;19.25;11.15;;;;;;;;;;6252104;22;20091;-94
2022/12/01 07:48:07;;;;;;;16.30;10.27;;;;;;;;;;6252860;22;20444;-93
2022/12/01 07:50:33;;;;;;;16.30;10.13;;;;;;;;;;6252835;22;20019;-95
2022/12/01 07:52:59;;;;;;;16.25;9.88;;;;;;;;;;6253622;22;20016;-93
2022/12/01 07:55:26;;;;;;;21.08;11.68;;;;;;;;;;6252188;22;20019;-96
2022/12/01 07:57:52;;;;;;;20.95;11.40;;;;;;;;;;6252558;22;20437;-94
2022/12/01 08:00:18;;;;;;;23.67;12.63;;;;;;;;;;6253278;22;20067;-93
2022/12/01 08:02:47;;;;;;;24.08;12.13;;;;;;;;;;6253280;22;20026;-93
2022/12/01 08:05:13;;;;;;;26.30;14.20;;;;;;;;;;6252077;22;20084;-96
2022/12/01 08:07:39;;;;;;;23.35;13.15;;;;;;;;;;6252294;22;20023;-95
2022/12/01 08:10:06;;;;;;;26.88;14.10;;;;;;;;;;6252502;22;20016;-93
2022/12/01 08:12:32;;;;;;;26.73;13.65;;;;;;;;;;6253629;22;20020;-94
2022/12/01 08:14:58;;;;;;;23.77;12.80;;;;;;;;;;6252411;22;20046;-93
2022/12/01 08:17:24;;;;;;;19.95;12.55;;;;;;;;;;6252531;22;20487;-94
2022/12/01 08:19:50;;;;;;;19.95;11.98;;;;;;;;;;6254113;22;20048;-95
2022/12/01 08:22:16;;;;;;;20.27;13.32;;;;;;;;;;6253171;22;20007;-95
2022/12/01 08:24:42;;;;;;;23.60;14.38;;;;;;;;;;6252183;22;20050;-93
2022/12/01 08:27:08;;;;;;;25.38;12.57;;;;;;;;;;6253335;22;20016;-95
2022/12/01 08:29:35;;;;;;;20.30;11.20;;;;;;;;;;6252656;22;20015;-93
2022/12/01 08:32:01;;;;;;;22.88;12.35;;;;;;;;;;6253510;22;20023;-95
2022/12/01 08:34:27;;;;;;;22.48;11.23;;;;;;;;;;6253795;22;20011;-92
2022/12/01 08:36:53;;;;;;;17.42;11.48;;;;;;;;;;6253992;22;20091;-94
2022/12/01 08:39:19;;;;;;;19.73;10.50;;;;;;;;;;6254748;22;20007;-95
2022/12/01 08:41:46;;;;;;;21.85;12.18;;;;;;;;;;6254613;22;20330;-93
2022/12/01 08:44:12;;;;;;;21.27;11.75;;;;;;;;;;6254813;22;20016;-94
2022/12/01 08:46:38;;;;;;;20.05;10.80;;;;;;;;;;6255915;22;20015;-93
2022/12/01 08:49:05;;;;;;;20.80;11.65;;;;;;;;;;6256306;22;20102;-94
2022/12/01 08:51:31;;;;;;;20.50;12.18;;;;;;;;;;6257750;22;20054;-93
2022/12/01 08:53:58;;;;;;;24.27;12.18;;;;;;;;;;6258109;22;20045;-93
2022/12/01 08:56:29;;;;;;;17.65;11.48;;;;;;;;;;6253900;22;20081;-95
2022/12/01 08:58:57;;;;;;;23.27;11.82;;;;;;;;;;6254118;22;20461;-95
2022/12/01 09:01:24;;;;;;;19.05;11.23;;;;;;;;;;6253365;22;20050;-94
2022/12/01 09:04:03;;;;;;;19.23;11.23;;;;;;;;;;6253991;22;20027;-94
2022/12/01 09:06:30;;;;;;;24.35;11.55;;;;;;;;;;6255492;22;20358;-95
2022/12/01 09:08:58;;;;;;;23.50;12.50;;;;;;;;;;6253003;22;20045;-94
2022/12/01 09:11:24;;;;;;;20.60;10.88;;;;;;;;;;6253933;22;20022;-96
2022/12/01 09:13:52;;;;;;;21.02;11.27;;;;;;;;;;6254970;22;20039;-95
2022/12/01 09:16:18;;;;;;;18.88;10.40;;;;;;;;;;6255177;22;20019;-95
2022/12/01 09:18:45;;;;;;;20.55;11.02;;;;;;;;;;6254958;22;20334;-95
2022/12/01 09:21:12;;;;;;;29.55;12.32;;;;;;;;;;6254999;22;20065;-94
2022/12/01 09:23:39;;;;;;;17.27;10.90;;;;;;;;;;6255219;22;20015;-95
2022/12/01 09:26:05;;;;;;;25.50;13.20;;;;;;;;;;6255930;22;20081;-94
2022/12/01 09:28:31;;;;;;;21.58;13.20;;;;;;;;;;6254368;22;20012;-95
2022/12/01 09:31:03;;;;;;;24.42;13.30;;;;;;;;;;6255417;22;20023;-95
2022/12/01 09:33:36;;;;;;;23.50;14.02;;;;;;;;;;6231068;22;20170;-94
2022/12/01 09:36:03;;;;;;;24.33;13.18;;;;;;;;;;6256309;22;20026;-93
2022/12/01 09:38:30;;;;;;;20.15;11.93;;;;;;;;;;6254609;22;20020;-94
2022/12/01 09:40:57;;;;;;;21.02;11.73;;;;;;;;;;6255460;22;20043;-94
2022/12/01 09:43:28;;;;;;;20.08;12.40;;;;;;;;;;6255121;22;20066;-94
2022/12/01 09:45:58;;;;;;;22.27;12.52;;;;;;;;;;6252437;22;20035;-95
2022/12/01 09:48:33;;;;;;;21.90;11.63;;;;;;;;;;6253002;22;20148;-94
2022/12/01 09:50:59;;;;;;;20.23;12.52;;;;;;;;;;6258063;22;20016;-95
2022/12/01 09:53:27;;;;;;;21.73;12.10;;;;;;;;;;6260965;22;20020;-94
2022/12/01 09:55:54;;;;;;;21.67;12.65;;;;;;;;;;6261946;22;20039;-95
2022/12/01 09:58:24;;;;;;;28.75;13.18;;;;;;;;;;6262268;22;20066;-94
2022/12/01 10:00:51;;;;;;;22.13;13.05;;;;;;;;;;6239877;22;20015;-96
2022/12/01 10:03:39;;;;;;;25.98;13.00;;;;;;;;;;6267874;22;20042;-96
2022/12/01 10:06:10;;;;;;;22.02;12.00;;;;;;;;;;6293506;22;20067;-96
2022/12/01 10:08:39;;;;;;;23.10;13.05;;;;;;;;;;6291914;22;20023;-96
2022/12/01 10:11:20;;;;;;;24.70;13.68;;;;;;;;;;6289539;22;20101;-96
2022/12/01 10:13:46;;;;;;;25.70;13.60;;;;;;;;;;6290105;22;20019;-96
2022/12/01 10:16:25;;;;;;;22.73;13.65;;;;;;;;;;6290951;22;20012;-95
2022/12/01 10:18:56;;;;;;;22.67;12.73;;;;;;;;;;6288850;22;20019;-95
2022/12/01 10:21:53;;;;;;;25.95;13.15;;;;;;;;;;6287453;22;20027;-93
2022/12/01 10:24:31;;;;;;;22.70;13.43;;;;;;;;;;6299959;22;20067;-92
2022/12/01 10:27:22;;;;;;;23.25;12.98;;;;;;;;;;6273688;22;20025;-92
2022/12/01 10:29:59;;;;;;;23.67;13.80;;;;;;;;;;6176668;23;20025;-92
2022/12/01 10:32:52;;;;;;;24.40;12.05;;;;;;;;;;6152123;23;20035;-92
2022/12/01 10:35:28;;;;;;;25.27;12.68;;;;;;;;;;6139745;23;20029;-92
2022/12/01 10:38:13;;;;;;;21.85;13.18;;;;;;;;;;6140489;23;20411;-92
2022/12/01 10:40:53;;;;;;;24.35;12.80;;;;;;;;;;6130904;23;20024;-93
2022/12/01 10:43:40;;;;;;;23.90;14.15;;;;;;;;;;6265543;23;20059;-91
2022/12/01 10:46:15;;;;;;;18.15;12.77;;;;;;;;;;6241815;23;20050;-91
2022/12/01 10:48:53;;;;;;;26.25;13.80;;;;;;;;;;6260517;23;20076;-90
2022/12/01 10:51:24;;;;;;;21.20;12.27;;;;;;;;;;6234940;23;20012;-91
2022/12/01 10:53:57;;;;;;;24.58;13.18;;;;;;;;;;6261833;23;20027;-91
2022/12/01 10:56:23;;;;;;;24.25;14.43;;;;;;;;;;6265254;23;20039;-90
2022/12/01 10:59:02;;;;;;;21.73;13.65;;;;;;;;;;6289650;22;20027;-91
2022/12/01 11:01:35;;;;;;;22.77;12.80;;;;;;;;;;6235775;23;20087;-90
2022/12/01 11:04:20;;;;;;;24.67;12.00;;;;;;;;;;6250407;23;20016;-90
2022/12/01 11:06:51;;;;;;;24.52;13.40;;;;;;;;;;6221594;23;20064;-89
2022/12/01 11:09:23;;;;;;;23.05;11.88;;;;;;;;;;6199683;23;20516;-90
2022/12/01 11:11:57;;;;;;;23.75;11.57;;;;;;;;;;6179077;23;20056;-90
2022/12/01 11:14:33;;;;;;;18.02;11.20;;;;;;;;;;6154547;23;20023;-90
2022/12/01 11:17:14;;;;;;;16.55;11.20;;;;;;;;;;6183463;23;20052;-90
2022/12/01 11:19:43;;;;;;;;;;;6.10;99.90;;;;;;6208635;23;20016;-90
2022/12/01 11:22:22;;;;;;;17.50;9.90;;;;;;;;;;6233867;23;19919;-94
2022/12/01 11:24:54;;;;;;;18.83;11.70;;;;;;;;;;6234697;23;20044;-91
2022/12/01 11:27:28;;;;;;;18.13;10.90;;;;;;;;;;6184080;23;20012;-90
2022/12/01 11:29:56;;;;;;;16.90;10.98;;;;;;;;;;6210796;22;20012;-90
2022/12/01 11:32:22;;;;;;;16.63;11.27;;;;;;;;;;6264772;22;20024;-92
2022/12/01 11:34:50;;;;;;;17.20;11.25;;;;;;;;;;6267361;22;20012;-91
2022/12/01 11:37:20;;;;;;;17.33;12.60;;;;;;;;;;6292888;22;20019;-90
2022/12/01 11:40:00;;;;;;;15.20;11.18;;;;;;;;;;6294951;22;20020;-91
2022/12/01 11:42:40;;;;;;;20.90;12.25;;;;;;;;;;6295488;22;20073;-91
2022/12/01 11:45:10;;;;;;;23.63;12.40;;;;;;;;;;6290740;22;20043;-91
2022/12/01 11:47:59;;;;;;;23.85;13.60;;;;;;;;;;6268815;22;20022;-91
2022/12/01 11:50:30;;;;;;;20.92;14.05;;;;;;;;;;6295112;22;20046;-92
2022/12/01 11:53:01;;;;;;;24.92;14.40;;;;;;;;;;6295237;22;20023;-91
2022/12/01 11:55:33;;;;;;;25.77;14.85;;;;;;;;;;6271291;22;20046;-92
2022/12/01 11:58:07;;;;;;;29.65;15.48;;;;;;;;;;6293641;22;20020;-92
2022/12/01 12:00:40;;;;;;;23.75;14.82;;;;;;;;;;6294133;22;20016;-92
2022/12/01 12:03:09;;;;;;;31.83;16.65;;;;;;;;;;6290030;22;20011;-88
2022/12/01 12:05:48;;;;;;;29.27;15.13;;;;;;;;;;6176581;23;20021;-92
2022/12/01 12:08:31;;;;;;;27.50;16.27;;;;;;;;;;6177531;23;20053;-89
2022/12/01 12:11:14;;;;;;;25.33;15.52;;;;;;;;;;6202342;23;20020;-90
2022/12/01 12:14:09;;;;;;;25.50;14.98;;;;;;;;;;6127630;23;20024;-89
2022/12/01 12:17:00;;;;;;;24.10;14.55;;;;;;;;;;6197780;23;20052;-90
2022/12/01 12:19:41;;;;;;;29.65;17.42;;;;;;;;;;6082612;23;20018;-90
2022/12/01 12:22:46;;;;;;;32.47;17.58;;;;;;;;;;6061084;23;20033;-90
2022/12/01 12:25:30;;;;;;;37.20;18.33;;;;;;;;;;5871146;24;20101;-89
2022/12/01 12:28:18;;;;;;;34.42;17.75;;;;;;;;;;5868368;24;20026;-90
2022/12/01 12:31:00;;;;;;;27.42;16.63;;;;;;;;;;5889675;24;20084;-90
2022/12/01 12:34:06;;;;;;;32.38;17.63;;;6.90;99.90;;;;;;6144516;22;20023;-91
2022/12/01 12:37:08;;;;;;;30.08;17.30;;;7.00;99.90;;;;;;6169200;23;20028;-92
2022/12/01 12:40:22;;;;;;;36.45;18.67;;;6.70;99.90;;;;;;6129033;23;20029;-89
2022/12/01 12:42:55;;;;;;;34.58;18.25;;;;;;;;;;6077815;23;20014;-89
2022/12/01 12:45:27;;;;;;;31.07;18.50;;;;;;;;;;6083154;23;20041;-90
2022/12/01 12:48:08;;;;;;;33.95;18.95;;;;;;;;;;6113586;23;20014;-89
2022/12/01 12:50:41;;;;;;;36.92;18.67;;;;;;;;;;6139168;23;20018;-92
2022/12/01 12:53:13;;;;;;;32.65;18.75;;;;;;;;;;6115618;23;20022;-89
2022/12/01 12:55:43;;;;;;;33.05;19.58;;;;;;;;;;6068641;23;20025;-89
2022/12/01 12:58:34;;;;;;;41.10;20.43;;;;;;;;;;6092055;23;20022;-90
2022/12/01 13:01:06;;;;;;;35.38;20.23;;;;;;;;;;6122922;22;20341;-89
2022/12/01 13:03:55;;;;;;;42.83;22.63;;;;;;;;;;6243697;22;20020;-89
2022/12/01 13:06:28;;;;;;;35.65;19.23;;;;;;;;;;6265752;22;20020;-89
2022/12/01 13:09:27;;;;;;;40.65;22.40;;;;;;;;;;6265719;22;20574;-89
2022/12/01 13:11:58;;;;;;;35.20;20.55;;;;;;;;;;6120788;23;20033;-90
2022/12/01 13:14:56;;;;;;;36.10;18.92;;;;;;;;;;6144757;23;20047;-89
2022/12/01 13:17:42;;;;;;;32.10;18.53;;;;;;;;;;6208961;23;20047;-89
2022/12/01 13:20:28;;;;;;;39.50;19.77;;;;;;;;;;6260769;23;20050;-89
2022/12/01 13:23:04;;;;;;;38.08;20.00;;;;;;;;;;6258790;23;20051;-90
2022/12/01 13:25:41;;;;;;;41.85;23.00;;;;;;;;;;6283018;22;20077;-89
2022/12/01 13:28:17;;;;;;;41.95;22.67;;;;;;;;;;6240038;23;20020;-91
2022/12/01 13:30:56;;;;;;;43.75;22.23;;;;;;;;;;6238599;23;20322;-89
2022/12/01 13:33:33;;;;;;;37.53;20.48;;;;;;;;;;6260767;23;20012;-89
2022/12/01 13:36:13;;;;;;;45.97;24.67;;;;;;;;;;6233376;23;20021;-91
2022/12/01 13:38:39;;;;;;;41.10;24.30;;;;;;;;;;6189789;23;20016;-90
2022/12/01 13:41:19;;;;;;;47.33;24.38;;;;;;;;;;6209685;23;20020;-90
2022/12/01 13:44:03;;;;;;;44.58;23.05;;;;;;;;;;6260270;23;20020;-89
2022/12/01 13:46:57;;;;;;;37.50;22.47;;;;;;;;;;6220201;23;20016;-89
2022/12/01 13:49:45;;;;;;;39.90;22.75;;;;;;;;;;6195614;23;20016;-89
2022/12/01 13:52:41;;;;;;;40.47;22.45;;;;;;;;;;6227192;23;20059;-91
2022/12/01 13:55:12;;;;;;;41.40;23.83;;;;;;;;;;6114386;23;20070;-90
2022/12/01 13:57:48;;;;;;;40.25;21.58;;;;;;;;;;6090421;23;20070;-90
2022/12/01 14:00:22;;;;;;;40.33;23.33;;;;;;;;;;6063709;23;20019;-93
2022/12/01 14:03:07;;;;;;;42.53;22.27;;;;;;;;;;6065460;23;20022;-91
2022/12/01 14:05:39;;;;;;;41.83;22.95;;;;;;;;;;6218679;22;20035;-92
2022/12/01 14:08:25;;;;;;;42.88;22.58;;;;;;;;;;6272283;22;20412;-89
2022/12/01 14:11:12;;;;;;;40.85;22.42;;;;;;;;;;6267963;22;20019;-91
2022/12/01 14:13:46;;;;;;;44.05;22.58;;;;;;;;;;6255504;22;20015;-91
2022/12/01 14:16:12;;;;;;;42.33;22.73;;;;;;;;;;6255881;22;20015;-94
2022/12/01 14:18:57;;;;;;;46.33;24.98;;;6.80;99.90;;;;;;6281358;22;20111;-94
2022/12/01 14:21:59;;;;;;;47.25;25.95;;;;;;;;;;6255634;22;20019;-91
2022/12/01 14:24:30;;;;;;;44.22;24.20;;;;;;;;;;6154560;23;20014;-91
2022/12/01 14:26:56;;;;;;;40.42;24.30;;;;;;;;;;6106070;23;20028;-92
2022/12/01 14:29:27;;;;;;;44.75;23.75;;;;;;;;;;6129621;23;20014;-91
2022/12/01 14:32:13;;;;;;;43.67;22.75;;;;;;;;;;6105357;23;20022;-91
2022/12/01 14:34:39;;;;;;;40.45;21.92;;;;;;;;;;6042875;23;20025;-91
2022/12/01 14:37:12;;;;;;;41.55;23.40;;;;;;;;;;6067094;23;20022;-91
2022/12/01 14:39:41;;;;;;;36.97;22.80;;;;;;;;;;6043148;23;20022;-93
2022/12/01 14:42:10;;;;;;;41.50;21.67;;;;;;;;;;6042593;23;20019;-91
2022/12/01 14:44:48;;;;;;;39.17;23.00;;;;;;;;;;6019406;23;20021;-91
2022/12/01 14:47:20;;;;;;;53.40;24.75;;;;;;;;;;6020548;23;20030;-91
2022/12/01 14:49:49;;;;;;;40.53;21.90;;;;;;;;;;6020420;23;20019;-92
2022/12/01 14:52:30;;;;;;;41.00;23.55;;;;;;;;;;6020540;23;20022;-92
2022/12/01 14:54:58;;;;;;;38.33;21.52;;;;;;;;;;6020532;23;20019;-91
2022/12/01 14:57:30;;;;;;;42.92;22.83;;;;;;;;;;6033114;23;20015;-90
2022/12/01 15:00:04;;;;;;;48.72;23.88;;;;;;;;;;6136085;23;20013;-91
2022/12/01 15:02:31;;;;;;;45.65;24.27;;;;;;;;;;6136204;23;20558;-92
2022/12/01 15:05:17;;;;;;;45.30;22.13;;;;;;;;;;6135562;23;20482;-91
2022/12/01 15:07:46;;;;;;;42.83;23.70;;;;;;;;;;6136232;23;20021;-92
2022/12/01 15:10:34;;;;;;;48.63;26.70;;;;;;;;;;6135836;23;20395;-92
2022/12/01 15:13:18;;;;;;;47.65;25.45;;;;;;;;;;6252348;22;20016;-91
2022/12/01 15:15:52;;;;;;;47.85;24.40;;;;;;;;;;6226938;22;20016;-91
2022/12/01 15:18:29;;;;;;;49.83;27.02;;;;;;;;;;6227745;22;20020;-92
2022/12/01 15:20:58;;;;;;;44.63;24.92;;;;;;;;;;6227061;22;20023;-91
2022/12/01 15:23:24;;;;;;;53.85;28.00;;;;;;;;;;6227937;22;20019;-91
2022/12/01 15:25:50;;;;;;;50.33;26.20;;;;;;;;;;6226164;22;20015;-92
2022/12/01 15:28:17;;;;;;;47.67;22.60;;;;;;;;;;6226333;22;20027;-92
2022/12/01 15:30:45;;;;;;;47.65;25.90;;;;;;;;;;6226941;22;20039;-91
2022/12/01 15:33:23;;;;;;;51.53;26.15;;;;;;;;;;6226978;22;20380;-92
2022/12/01 15:35:49;;;;;;;48.20;23.98;;;;;;;;;;6226289;22;20074;-91
2022/12/01 15:38:17;;;;;;;48.80;25.65;;;;;;;;;;6225994;22;20058;-91
2022/12/01 15:40:44;;;;;;;49.00;25.08;;;;;;;;;;6226641;22;20054;-92
2022/12/01 15:43:16;;;;;;;53.47;26.60;;;;;;;;;;6227621;22;20022;-92
2022/12/01 15:45:59;;;;;;;50.53;26.52;;;;;;;;;;6226023;22;20464;-92
2022/12/01 15:48:33;;;;;;;52.55;26.20;;;;;;;;;;6226081;22;20023;-92
2022/12/01 15:51:11;;;;;;;50.17;25.58;;;;;;;;;;6226115;22;20016;-92
2022/12/01 15:53:46;;;;;;;52.50;25.60;;;;;;;;;;6227261;22;20011;-93
2022/12/01 15:56:13;;;;;;;50.63;26.55;;;;;;;;;;6251371;22;20154;-92
2022/12/01 15:58:44;;;;;;;48.70;27.02;;;;;;;;;;6226108;22;20515;-92
2022/12/01 16:01:12;;;;;;;48.42;27.85;;;;;;;;;;6226720;22;20020;-91
2022/12/01 16:03:56;;;;;;;51.67;26.23;;;;;;;;;;6226012;22;20031;-92
2022/12/01 16:06:24;;;;;;;57.90;28.48;;;;;;;;;;6226030;22;20055;-92
2022/12/01 16:08:58;;;;;;;47.92;28.13;;;;;;;;;;6227100;22;20448;-92
2022/12/01 16:11:25;;;;;;;54.90;27.27;;;;;;;;;;6226483;22;20015;-92
2022/12/01 16:14:03;;;;;;;55.40;27.75;;;;;;;;;;6227785;22;20020;-95
2022/12/01 16:16:48;;;;;;;58.72;29.98;;;;;;;;;;6226581;22;20020;-96